sensor_id;sensor_type;location;lat;lon;timestamp;pressure;altitude;pressure_sealevel;temperature;humidity
49835;BME280;35729;52.090;13.162;2023-04-27T00:01:09;101274.56;;;5.82;60.09
49835;BME280;35729;52.090;13.162;2023-04-27T00:03:41;101271.94;;;5.82;60.24
49835;BME280;35729;52.090;13.162;2023-04-27T00:06:10;101272.84;;;5.83;60.08
49835;BME280;35729;52.090;13.162;2023-04-27T00:08:38;101269.34;;;5.81;60.18
49835;BME280;35729;52.090;13.162;2023-04-27T00:11:07;101275.44;;;5.81;60.15
49835;BME280;35729;52.090;13.162;2023-04-27T00:13:35;101270.19;;;5.78;60.39
49835;BME280;35729;52.090;13.162;2023-04-27T00:16:04;101266.72;;;5.78;60.45
49835;BME280;35729;52.090;13.162;2023-04-27T00:18:33;101265.84;;;5.74;60.42
49835;BME280;35729;52.090;13.162;2023-04-27T00:21:05;101263.22;;;5.73;60.39
49835;BME280;35729;52.090;13.162;2023-04-27T00:23:33;101267.56;;;5.74;60.42
49835;BME280;35729;52.090;13.162;2023-04-27T00:26:02;101264.09;;;5.71;60.70
49835;BME280;35729;52.090;13.162;2023-04-27T00:28:30;101269.28;;;5.70;60.60
49835;BME280;35729;52.090;13.162;2023-04-27T00:30:59;101269.25;;;5.68;60.74
49835;BME280;35729;52.090;13.162;2023-04-27T00:33:28;101266.66;;;5.67;60.88
49835;BME280;35729;52.090;13.162;2023-04-27T00:35:58;101274.47;;;5.65;60.83
49835;BME280;35729;52.090;13.162;2023-04-27T00:38:30;101265.75;;;5.63;60.80
49835;BME280;35729;52.090;13.162;2023-04-27T00:41:02;101267.50;;;5.61;61.49
49835;BME280;35729;52.090;13.162;2023-04-27T00:43:31;101264.84;;;5.58;61.30
49835;BME280;35729;52.090;13.162;2023-04-27T00:46:00;101264.81;;;5.52;61.27
49835;BME280;35729;52.090;13.162;2023-04-27T00:48:28;101270.06;;;5.55;61.26
49835;BME280;35729;52.090;13.162;2023-04-27T00:50:57;101270.06;;;5.55;61.43
49835;BME280;35729;52.090;13.162;2023-04-27T00:53:26;101274.34;;;5.53;61.43
49835;BME280;35729;52.090;13.162;2023-04-27T00:55:57;101269.16;;;5.53;61.51
49835;BME280;35729;52.090;13.162;2023-04-27T00:58:26;101267.41;;;5.52;61.53
49835;BME280;35729;52.090;13.162;2023-04-27T01:00:55;101275.22;;;5.52;61.29
49835;BME280;35729;52.090;13.162;2023-04-27T01:03:23;101277.81;;;5.52;61.58
49835;BME280;35729;52.090;13.162;2023-04-27T01:05:52;101283.03;;;5.52;61.57
49835;BME280;35729;52.090;13.162;2023-04-27T01:08:21;101282.16;;;5.50;61.73
49835;BME280;35729;52.090;13.162;2023-04-27T01:10:49;101280.41;;;5.47;61.88
49835;BME280;35729;52.090;13.162;2023-04-27T01:13:20;101274.31;;;5.47;62.07
49835;BME280;35729;52.090;13.162;2023-04-27T01:15:49;101282.13;;;5.47;61.97
49835;BME280;35729;52.090;13.162;2023-04-27T01:18:17;101282.97;;;5.46;62.17
49835;BME280;35729;52.090;13.162;2023-04-27T01:20:46;101276.03;;;5.45;62.17
49835;BME280;35729;52.090;13.162;2023-04-27T01:23:17;101279.50;;;5.45;62.17
49835;BME280;35729;52.090;13.162;2023-04-27T01:25:46;101277.75;;;5.44;62.16
49835;BME280;35729;52.090;13.162;2023-04-27T01:28:14;101285.56;;;5.44;62.14
49835;BME280;35729;52.090;13.162;2023-04-27T01:30:43;101279.50;;;5.44;62.11
49835;BME280;35729;52.090;13.162;2023-04-27T01:33:11;101277.75;;;5.43;62.46
49835;BME280;35729;52.090;13.162;2023-04-27T01:35:40;101278.59;;;5.42;62.33
49835;BME280;35729;52.090;13.162;2023-04-27T01:38:08;101282.09;;;5.42;62.36
49835;BME280;35729;52.090;13.162;2023-04-27T01:40:40;101280.34;;;5.41;62.64
49835;BME280;35729;52.090;13.162;2023-04-27T01:43:08;101290.72;;;5.39;62.55
49835;BME280;35729;52.090;13.162;2023-04-27T01:45:37;101293.31;;;5.38;62.64
49835;BME280;35729;52.090;13.162;2023-04-27T01:48:05;101291.59;;;5.38;62.80
49835;BME280;35729;52.090;13.162;2023-04-27T01:50:34;101295.91;;;5.36;62.70
49835;BME280;35729;52.090;13.162;2023-04-27T01:53:02;101297.66;;;5.36;62.82
49835;BME280;35729;52.090;13.162;2023-04-27T01:55:30;101295.03;;;5.34;63.06
49835;BME280;35729;52.090;13.162;2023-04-27T01:58:02;101300.22;;;5.34;62.99
49835;BME280;35729;52.090;13.162;2023-04-27T02:00:30;101303.72;;;5.35;62.98
49835;BME280;35729;52.090;13.162;2023-04-27T02:02:59;101300.22;;;5.34;63.16
49835;BME280;35729;52.090;13.162;2023-04-27T02:05:27;101300.22;;;5.34;63.28
49835;BME280;35729;52.090;13.162;2023-04-27T02:07:56;101302.81;;;5.33;63.29
49835;BME280;35729;52.090;13.162;2023-04-27T02:10:24;101304.56;;;5.32;63.37
49835;BME280;35729;52.090;13.162;2023-04-27T02:12:53;101307.16;;;5.32;63.47
49835;BME280;35729;52.090;13.162;2023-04-27T02:15:24;101311.47;;;5.32;63.40
49835;BME280;35729;52.090;13.162;2023-04-27T02:17:53;101305.41;;;5.31;63.48
49835;BME280;35729;52.090;13.162;2023-04-27T02:20:21;101308.88;;;5.30;63.54
49835;BME280;35729;52.090;13.162;2023-04-27T02:22:50;101307.13;;;5.29;63.51
49835;BME280;35729;52.090;13.162;2023-04-27T02:25:19;101308.00;;;5.28;63.81
49835;BME280;35729;52.090;13.162;2023-04-27T02:27:47;101309.72;;;5.28;63.72
49835;BME280;35729;52.090;13.162;2023-04-27T02:30:16;101314.91;;;5.28;63.64
49835;BME280;35729;52.090;13.162;2023-04-27T02:32:47;101316.66;;;5.27;63.75
49835;BME280;35729;52.090;13.162;2023-04-27T02:35:15;101309.72;;;5.28;63.74
49835;BME280;35729;52.090;13.162;2023-04-27T02:37:44;101311.47;;;5.27;63.69
49835;BME280;35729;52.090;13.162;2023-04-27T02:40:12;101315.75;;;5.25;63.86
49835;BME280;35729;52.090;13.162;2023-04-27T02:42:41;101316.63;;;5.24;63.99
49835;BME280;35729;52.090;13.162;2023-04-27T02:45:10;101314.88;;;5.23;63.97
49835;BME280;35729;52.090;13.162;2023-04-27T02:47:38;101314.00;;;5.21;64.29
49835;BME280;35729;52.090;13.162;2023-04-27T02:50:10;101318.34;;;5.22;64.17
49835;BME280;35729;52.090;13.162;2023-04-27T02:52:38;101315.75;;;5.22;64.29
49835;BME280;35729;52.090;13.162;2023-04-27T02:55:07;101321.81;;;5.21;64.49
49835;BME280;35729;52.090;13.162;2023-04-27T02:57:36;101320.06;;;5.20;64.40
49835;BME280;35729;52.090;13.162;2023-04-27T03:00:07;101318.31;;;5.20;64.45
49835;BME280;35729;52.090;13.162;2023-04-27T03:02:37;101319.16;;;5.18;64.55
49835;BME280;35729;52.090;13.162;2023-04-27T03:05:08;101324.34;;;5.18;64.81
49835;BME280;35729;52.090;13.162;2023-04-27T03:07:37;101332.16;;;5.16;64.82
49835;BME280;35729;52.090;13.162;2023-04-27T03:10:06;101330.41;;;5.15;64.97
49835;BME280;35729;52.090;13.162;2023-04-27T03:12:35;101333.84;;;5.14;65.05
49835;BME280;35729;52.090;13.162;2023-04-27T03:15:05;101336.44;;;5.13;65.36
49835;BME280;35729;52.090;13.162;2023-04-27T03:17:33;101341.63;;;5.10;65.28
49835;BME280;35729;52.090;13.162;2023-04-27T03:20:02;101340.72;;;5.08;65.36
49835;BME280;35729;52.090;13.162;2023-04-27T03:22:36;101337.28;;;5.07;65.60
49835;BME280;35729;52.090;13.162;2023-04-27T03:25:05;101342.47;;;5.05;65.46
49835;BME280;35729;52.090;13.162;2023-04-27T03:27:34;101345.06;;;5.05;65.28
49835;BME280;35729;52.090;13.162;2023-04-27T03:30:03;101343.31;;;5.04;65.47
49835;BME280;35729;52.090;13.162;2023-04-27T03:32:32;101346.78;;;5.05;65.47
49835;BME280;35729;52.090;13.162;2023-04-27T03:35:00;101358.06;;;5.05;65.58
49835;BME280;35729;52.090;13.162;2023-04-27T03:37:29;101359.78;;;5.05;65.64
49835;BME280;35729;52.090;13.162;2023-04-27T03:40:01;101358.03;;;5.04;66.10
49835;BME280;35729;52.090;13.162;2023-04-27T03:42:31;101360.63;;;5.02;65.95
49835;BME280;35729;52.090;13.162;2023-04-27T03:45:00;101365.81;;;5.02;66.18
49835;BME280;35729;52.090;13.162;2023-04-27T03:47:29;101370.13;;;5.00;66.23
49835;BME280;35729;52.090;13.162;2023-04-27T03:49:58;101365.81;;;4.99;66.55
49835;BME280;35729;52.090;13.162;2023-04-27T03:52:33;101369.25;;;4.98;67.11
49835;BME280;35729;52.090;13.162;2023-04-27T03:55:05;101371.84;;;4.97;66.71
49835;BME280;35729;52.090;13.162;2023-04-27T03:57:40;101374.44;;;4.97;66.48
49835;BME280;35729;52.090;13.162;2023-04-27T04:00:09;101377.03;;;4.97;66.64
49835;BME280;35729;52.090;13.162;2023-04-27T04:02:39;101375.28;;;4.96;66.57
49835;BME280;35729;52.090;13.162;2023-04-27T04:05:08;101371.78;;;4.95;66.85
49835;BME280;35729;52.090;13.162;2023-04-27T04:07:38;101379.59;;;4.95;66.80
49835;BME280;35729;52.090;13.162;2023-04-27T04:10:10;101384.78;;;4.95;67.02
49835;BME280;35729;52.090;13.162;2023-04-27T04:12:39;101388.28;;;4.96;67.07
49835;BME280;35729;52.090;13.162;2023-04-27T04:15:08;101393.47;;;4.94;67.06
49835;BME280;35729;52.090;13.162;2023-04-27T04:17:36;101388.28;;;4.94;67.13
49835;BME280;35729;52.090;13.162;2023-04-27T04:20:06;101395.19;;;4.94;67.17
49835;BME280;35729;52.090;13.162;2023-04-27T04:22:35;101401.28;;;4.94;67.27
49835;BME280;35729;52.090;13.162;2023-04-27T04:25:05;101397.81;;;4.95;67.32
49835;BME280;35729;52.090;13.162;2023-04-27T04:27:36;101398.69;;;4.96;67.29
49835;BME280;35729;52.090;13.162;2023-04-27T04:30:05;101399.56;;;4.96;67.26
49835;BME280;35729;52.090;13.162;2023-04-27T04:32:35;101403.91;;;4.97;67.23
49835;BME280;35729;52.090;13.162;2023-04-27T04:35:05;101404.81;;;4.99;67.59
49835;BME280;35729;52.090;13.162;2023-04-27T04:37:33;101405.66;;;5.00;67.72
49835;BME280;35729;52.090;13.162;2023-04-27T04:40:06;101410.03;;;5.01;67.70
49835;BME280;35729;52.090;13.162;2023-04-27T04:42:38;101410.91;;;5.03;67.66
49835;BME280;35729;52.090;13.162;2023-04-27T04:45:07;101412.69;;;5.05;67.71
49835;BME280;35729;52.090;13.162;2023-04-27T04:47:36;101410.09;;;5.07;67.84
49835;BME280;35729;52.090;13.162;2023-04-27T04:50:06;101417.06;;;5.08;67.80
49835;BME280;35729;52.090;13.162;2023-04-27T04:52:35;101413.56;;;5.09;67.68
49835;BME280;35729;52.090;13.162;2023-04-27T04:55:05;101408.34;;;5.08;67.70
49835;BME280;35729;52.090;13.162;2023-04-27T04:57:33;101422.28;;;5.13;67.92
49835;BME280;35729;52.090;13.162;2023-04-27T05:00:06;101420.59;;;5.15;67.95
49835;BME280;35729;52.090;13.162;2023-04-27T05:02:36;101423.22;;;5.18;68.17
49835;BME280;35729;52.090;13.162;2023-04-27T05:05:04;101418.00;;;5.18;67.54
49835;BME280;35729;52.090;13.162;2023-04-27T05:07:33;101413.72;;;5.21;67.61
49835;BME280;35729;52.090;13.162;2023-04-27T05:10:02;101416.38;;;5.25;67.50
49835;BME280;35729;52.090;13.162;2023-04-27T05:12:30;101415.53;;;5.27;67.54
49835;BME280;35729;52.090;13.162;2023-04-27T05:14:59;101422.50;;;5.31;67.66
49835;BME280;35729;52.090;13.162;2023-04-27T05:17:30;101414.72;;;5.33;67.49
49835;BME280;35729;52.090;13.162;2023-04-27T05:19:59;101416.47;;;5.35;67.61
49835;BME280;35729;52.090;13.162;2023-04-27T05:22:29;101416.53;;;5.38;67.55
49835;BME280;35729;52.090;13.162;2023-04-27T05:24:57;101413.94;;;5.42;67.44
49835;BME280;35729;52.090;13.162;2023-04-27T05:27:26;101419.19;;;5.45;67.42
49835;BME280;35729;52.090;13.162;2023-04-27T05:29:54;101414.84;;;5.47;67.28
49835;BME280;35729;52.090;13.162;2023-04-27T05:32:23;101419.25;;;5.52;67.17
49835;BME280;35729;52.090;13.162;2023-04-27T05:34:54;101414.06;;;5.55;67.30
49835;BME280;35729;52.090;13.162;2023-04-27T05:37:22;101427.16;;;5.62;66.96
49835;BME280;35729;52.090;13.162;2023-04-27T05:39:51;101422.00;;;5.68;67.08
49835;BME280;35729;52.090;13.162;2023-04-27T05:42:19;101416.84;;;5.73;66.78
49835;BME280;35729;52.090;13.162;2023-04-27T05:44:48;101418.63;;;5.78;66.63
49835;BME280;35729;52.090;13.162;2023-04-27T05:47:16;101424.75;;;5.83;66.46
49835;BME280;35729;52.090;13.162;2023-04-27T05:49:49;101429.16;;;5.89;66.48
49835;BME280;35729;52.090;13.162;2023-04-27T05:52:20;101431.81;;;5.95;66.36
49835;BME280;35729;52.090;13.162;2023-04-27T05:54:53;101427.53;;;6.00;66.06
49835;BME280;35729;52.090;13.162;2023-04-27T05:57:23;101431.91;;;6.06;66.06
49835;BME280;35729;52.090;13.162;2023-04-27T05:59:52;101435.41;;;6.13;66.08
49835;BME280;35729;52.090;13.162;2023-04-27T06:02:21;101443.28;;;6.19;65.68
49835;BME280;35729;52.090;13.162;2023-04-27T06:04:49;101433.81;;;6.26;65.77
49835;BME280;35729;52.090;13.162;2023-04-27T06:07:20;101434.72;;;6.31;65.45
49835;BME280;35729;52.090;13.162;2023-04-27T06:09:49;101433.88;;;6.36;65.40
49835;BME280;35729;52.090;13.162;2023-04-27T06:12:17;101445.19;;;6.42;65.38
49835;BME280;35729;52.090;13.162;2023-04-27T06:14:46;101445.22;;;6.48;65.25
49835;BME280;35729;52.090;13.162;2023-04-27T06:17:14;101450.50;;;6.54;65.21
49835;BME280;35729;52.090;13.162;2023-04-27T06:19:43;101442.72;;;6.60;64.92
49835;BME280;35729;52.090;13.162;2023-04-27T06:22:11;101444.47;;;6.66;64.83
49835;BME280;35729;52.090;13.162;2023-04-27T06:24:42;101443.63;;;6.72;64.62
49835;BME280;35729;52.090;13.162;2023-04-27T06:27:11;101448.91;;;6.76;64.44
49835;BME280;35729;52.090;13.162;2023-04-27T06:29:40;101442.81;;;6.80;64.52
49835;BME280;35729;52.090;13.162;2023-04-27T06:32:08;101448.94;;;6.85;64.26
49835;BME280;35729;52.090;13.162;2023-04-27T06:34:37;101453.28;;;6.88;64.07
49835;BME280;35729;52.090;13.162;2023-04-27T06:37:06;101455.06;;;6.94;63.68
49835;BME280;35729;52.090;13.162;2023-04-27T06:39:34;101462.03;;;6.96;63.34
49835;BME280;35729;52.090;13.162;2023-04-27T06:42:06;101470.72;;;6.98;62.58
49835;BME280;35729;52.090;13.162;2023-04-27T06:44:34;101459.44;;;6.98;62.08
49835;BME280;35729;52.090;13.162;2023-04-27T06:47:03;101462.03;;;6.98;61.61
49835;BME280;35729;52.090;13.162;2023-04-27T06:49:32;101470.72;;;6.97;61.61
49835;BME280;35729;52.090;13.162;2023-04-27T06:52:01;101466.38;;;6.97;60.92
49835;BME280;35729;52.090;13.162;2023-04-27T06:54:30;101473.34;;;6.98;60.96
49835;BME280;35729;52.090;13.162;2023-04-27T06:56:58;101473.38;;;7.01;60.82
49835;BME280;35729;52.090;13.162;2023-04-27T06:59:30;101471.63;;;7.04;60.85
49835;BME280;35729;52.090;13.162;2023-04-27T07:01:58;101466.44;;;7.07;60.99
49835;BME280;35729;52.090;13.162;2023-04-27T07:04:27;101471.66;;;7.10;60.84
49835;BME280;35729;52.090;13.162;2023-04-27T07:06:55;101475.19;;;7.18;60.65
49835;BME280;35729;52.090;13.162;2023-04-27T07:09:24;101477.81;;;7.27;60.50
49835;BME280;35729;52.090;13.162;2023-04-27T07:11:53;101476.97;;;7.38;60.07
49835;BME280;35729;52.090;13.162;2023-04-27T07:14:23;101464.81;;;7.43;60.13
49835;BME280;35729;52.090;13.162;2023-04-27T07:16:54;101467.47;;;7.52;59.42
49835;BME280;35729;52.090;13.162;2023-04-27T07:19:23;101466.56;;;7.59;59.36
49835;BME280;35729;52.090;13.162;2023-04-27T07:21:51;101467.47;;;7.68;58.95
49835;BME280;35729;52.090;13.162;2023-04-27T07:24:20;101480.53;;;7.77;58.59
49835;BME280;35729;52.090;13.162;2023-04-27T07:26:48;101477.09;;;7.81;57.69
49835;BME280;35729;52.090;13.162;2023-04-27T07:29:17;101477.09;;;7.84;58.26
49835;BME280;35729;52.090;13.162;2023-04-27T07:31:46;101477.09;;;7.89;58.04
49835;BME280;35729;52.090;13.162;2023-04-27T07:34:17;101477.09;;;7.93;57.67
49835;BME280;35729;52.090;13.162;2023-04-27T07:36:45;101476.22;;;8.01;57.39
49835;BME280;35729;52.090;13.162;2023-04-27T07:39:14;101478.81;;;8.04;57.11
49835;BME280;35729;52.090;13.162;2023-04-27T07:41:45;101482.31;;;8.06;57.23
49835;BME280;35729;52.090;13.162;2023-04-27T07:44:14;101473.63;;;8.08;57.47
49835;BME280;35729;52.090;13.162;2023-04-27T07:46:43;101476.25;;;8.11;57.28
49835;BME280;35729;52.090;13.162;2023-04-27T07:49:11;101488.44;;;8.14;57.23
49835;BME280;35729;52.090;13.162;2023-04-27T07:51:43;101487.53;;;8.15;56.83
49835;BME280;35729;52.090;13.162;2023-04-27T07:54:11;101483.22;;;8.14;56.79
49835;BME280;35729;52.090;13.162;2023-04-27T07:56:40;101495.41;;;8.13;56.13
49835;BME280;35729;52.090;13.162;2023-04-27T07:59:09;101498.88;;;8.12;56.11
49835;BME280;35729;52.090;13.162;2023-04-27T08:01:46;101494.53;;;8.08;55.10
49835;BME280;35729;52.090;13.162;2023-04-27T08:04:21;101502.34;;;8.10;55.79
49835;BME280;35729;52.090;13.162;2023-04-27T08:06:52;101495.41;;;8.10;55.41
49835;BME280;35729;52.090;13.162;2023-04-27T08:09:20;101498.91;;;8.14;55.64
49835;BME280;35729;52.090;13.162;2023-04-27T08:11:48;101502.38;;;8.18;55.24
49835;BME280;35729;52.090;13.162;2023-04-27T08:14:17;101504.13;;;8.20;55.62
49835;BME280;35729;52.090;13.162;2023-04-27T08:16:45;101500.63;;;8.21;53.83
49835;BME280;35729;52.090;13.162;2023-04-27T08:19:16;101494.53;;;8.22;55.06
49835;BME280;35729;52.090;13.162;2023-04-27T08:21:45;101497.13;;;8.22;55.29
49835;BME280;35729;52.090;13.162;2023-04-27T08:24:16;101498.00;;;8.21;55.02
49835;BME280;35729;52.090;13.162;2023-04-27T08:26:45;101502.38;;;8.19;55.25
49835;BME280;35729;52.090;13.162;2023-04-27T08:29:14;101504.13;;;8.17;55.42
49835;BME280;35729;52.090;13.162;2023-04-27T08:31:42;101511.94;;;8.19;55.33
49835;BME280;35729;52.090;13.162;2023-04-27T08:34:10;101497.13;;;8.22;55.08
49835;BME280;35729;52.090;13.162;2023-04-27T08:36:39;101508.47;;;8.21;55.06
49835;BME280;35729;52.090;13.162;2023-04-27T08:39:07;101504.13;;;8.23;55.21
49835;BME280;35729;52.090;13.162;2023-04-27T08:41:41;101511.09;;;8.27;54.47
49835;BME280;35729;52.090;13.162;2023-04-27T08:44:10;101505.88;;;8.24;54.77
49835;BME280;35729;52.090;13.162;2023-04-27T08:46:38;101496.28;;;8.20;54.65
49835;BME280;35729;52.090;13.162;2023-04-27T08:49:06;101492.78;;;8.18;54.74
49835;BME280;35729;52.090;13.162;2023-04-27T08:51:35;101501.50;;;8.11;55.12
49835;BME280;35729;52.090;13.162;2023-04-27T08:54:04;101504.13;;;8.09;54.99
49835;BME280;35729;52.090;13.162;2023-04-27T08:56:33;101500.63;;;8.07;55.13
49835;BME280;35729;52.090;13.162;2023-04-27T08:59:12;101504.13;;;8.06;54.91
49835;BME280;35729;52.090;13.162;2023-04-27T09:01:45;101489.28;;;8.04;55.08
49835;BME280;35729;52.090;13.162;2023-04-27T09:04:14;101494.53;;;8.13;54.89
49835;BME280;35729;52.090;13.162;2023-04-27T09:06:43;101489.28;;;8.22;54.59
49835;BME280;35729;52.090;13.162;2023-04-27T09:09:21;101488.44;;;8.31;54.25
49835;BME280;35729;52.090;13.162;2023-04-27T09:11:49;101492.78;;;8.40;53.76
49835;BME280;35729;52.090;13.162;2023-04-27T09:14:22;101485.84;;;8.50;53.59
49835;BME280;35729;52.090;13.162;2023-04-27T09:16:53;101491.91;;;8.58;52.27
49835;BME280;35729;52.090;13.162;2023-04-27T09:19:24;101478.84;;;8.62;52.92
49835;BME280;35729;52.090;13.162;2023-04-27T09:22:02;101478.84;;;8.67;51.15
49835;BME280;35729;52.090;13.162;2023-04-27T09:24:32;101481.47;;;8.67;51.98
49835;BME280;35729;52.090;13.162;2023-04-27T09:27:00;101467.50;;;8.65;51.88
49835;BME280;35729;52.090;13.162;2023-04-27T09:29:36;101475.34;;;8.67;51.85
49835;BME280;35729;52.090;13.162;2023-04-27T09:32:14;101478.81;;;8.66;51.63
49835;BME280;35729;52.090;13.162;2023-04-27T09:34:45;101470.09;;;8.73;52.25
49835;BME280;35729;52.090;13.162;2023-04-27T09:37:14;101469.19;;;8.83;51.97
49835;BME280;35729;52.090;13.162;2023-04-27T09:39:44;101466.56;;;8.92;51.08
49835;BME280;35729;52.090;13.162;2023-04-27T09:42:14;101464.81;;;8.98;50.93
49835;BME280;35729;52.090;13.162;2023-04-27T09:44:45;101465.63;;;9.00;48.18
49835;BME280;35729;52.090;13.162;2023-04-27T09:47:14;101462.16;;;8.99;49.97
49835;BME280;35729;52.090;13.162;2023-04-27T09:49:43;101470.03;;;8.99;49.86
49835;BME280;35729;52.090;13.162;2023-04-27T09:52:11;101462.16;;;8.99;49.83
49835;BME280;35729;52.090;13.162;2023-04-27T09:54:40;101469.13;;;8.97;49.51
49835;BME280;35729;52.090;13.162;2023-04-27T09:57:17;101469.16;;;8.95;48.84
49835;BME280;35729;52.090;13.162;2023-04-27T10:00:02;101469.19;;;8.92;49.02
49835;BME280;35729;52.090;13.162;2023-04-27T10:02:41;101469.19;;;8.92;49.73
49835;BME280;35729;52.090;13.162;2023-04-27T10:05:24;101462.19;;;8.98;50.08
49835;BME280;35729;52.090;13.162;2023-04-27T10:07:56;101462.16;;;9.05;50.71
49835;BME280;35729;52.090;13.162;2023-04-27T10:10:25;101461.22;;;9.16;50.66
49835;BME280;35729;52.090;13.162;2023-04-27T10:12:59;101455.06;;;9.26;50.62
49835;BME280;35729;52.090;13.162;2023-04-27T10:15:30;101450.69;;;9.33;50.44
49835;BME280;35729;52.090;13.162;2023-04-27T10:18:03;101464.63;;;9.39;49.97
49835;BME280;35729;52.090;13.162;2023-04-27T10:20:35;101461.16;;;9.33;49.89
49835;BME280;35729;52.090;13.162;2023-04-27T10:23:05;101462.94;;;9.29;50.58
49835;BME280;35729;52.090;13.162;2023-04-27T10:25:37;101462.91;;;9.31;50.70
49835;BME280;35729;52.090;13.162;2023-04-27T10:28:07;101466.38;;;9.36;50.77
49835;BME280;35729;52.090;13.162;2023-04-27T10:30:38;101456.75;;;9.44;50.75
49835;BME280;35729;52.090;13.162;2023-04-27T10:33:15;101455.78;;;9.57;50.66
49835;BME280;35729;52.090;13.162;2023-04-27T10:35:53;101463.56;;;9.68;48.89
49835;BME280;35729;52.090;13.162;2023-04-27T10:38:27;101454.78;;;9.77;49.02
49835;BME280;35729;52.090;13.162;2023-04-27T10:40:58;101463.44;;;9.88;48.86
49835;BME280;35729;52.090;13.162;2023-04-27T10:43:29;101453.75;;;9.97;48.53
49835;BME280;35729;52.090;13.162;2023-04-27T10:46:09;101453.66;;;10.06;47.30
49835;BME280;35729;52.090;13.162;2023-04-27T10:48:39;101443.13;;;10.14;48.05
49835;BME280;35729;52.090;13.162;2023-04-27T10:51:08;101450.84;;;10.31;47.73
49835;BME280;35729;52.090;13.162;2023-04-27T10:53:37;101465.59;;;10.46;47.57
49835;BME280;35729;52.090;13.162;2023-04-27T10:56:05;101455.94;;;10.51;47.82
49835;BME280;35729;52.090;13.162;2023-04-27T10:58:34;101442.91;;;10.43;47.29
49835;BME280;35729;52.090;13.162;2023-04-27T11:01:22;101456.06;;;10.32;45.15
49835;BME280;35729;52.090;13.162;2023-04-27T11:03:58;101457.88;;;10.25;45.08
49835;BME280;35729;52.090;13.162;2023-04-27T11:06:28;101451.78;;;10.23;46.10
49835;BME280;35729;52.090;13.162;2023-04-27T11:08:57;101450.88;;;10.26;46.28
49835;BME280;35729;52.090;13.162;2023-04-27T11:11:26;101450.84;;;10.34;46.24
49835;BME280;35729;52.090;13.162;2023-04-27T11:13:54;101456.81;;;10.50;45.66
49835;BME280;35729;52.090;13.162;2023-04-27T11:16:25;101462.81;;;10.61;43.83
49835;BME280;35729;52.090;13.162;2023-04-27T11:18:54;101461.91;;;10.64;43.56
49835;BME280;35729;52.090;13.162;2023-04-27T11:21:22;101458.44;;;10.60;43.46
49835;BME280;35729;52.090;13.162;2023-04-27T11:23:52;101452.47;;;10.47;43.74
49835;BME280;35729;52.090;13.162;2023-04-27T11:26:23;101468.28;;;10.35;43.39
49835;BME280;35729;52.090;13.162;2023-04-27T11:28:57;101470.16;;;10.20;43.64
49835;BME280;35729;52.090;13.162;2023-04-27T11:31:38;101472.00;;;10.09;43.39
49835;BME280;35729;52.090;13.162;2023-04-27T11:34:08;101466.78;;;10.06;43.99
49835;BME280;35729;52.090;13.162;2023-04-27T11:36:37;101466.81;;;10.03;44.17
49835;BME280;35729;52.090;13.162;2023-04-27T11:39:05;101477.31;;;10.03;44.06
49835;BME280;35729;52.090;13.162;2023-04-27T11:41:34;101476.44;;;10.02;44.35
49835;BME280;35729;52.090;13.162;2023-04-27T11:44:05;101473.78;;;10.05;44.44
49835;BME280;35729;52.090;13.162;2023-04-27T11:46:37;101475.50;;;10.08;44.43
49835;BME280;35729;52.090;13.162;2023-04-27T11:49:07;101471.13;;;10.10;44.33
49835;BME280;35729;52.090;13.162;2023-04-27T11:51:35;101471.09;;;10.16;44.41
49835;BME280;35729;52.090;13.162;2023-04-27T11:54:05;101476.25;;;10.25;44.58
49835;BME280;35729;52.090;13.162;2023-04-27T11:56:35;101476.16;;;10.38;44.40
49835;BME280;35729;52.090;13.162;2023-04-27T11:59:03;101494.44;;;10.50;44.29
49835;BME280;35729;52.090;13.162;2023-04-27T12:01:32;101483.84;;;10.58;44.02
49835;BME280;35729;52.090;13.162;2023-04-27T12:04:04;101481.19;;;10.64;42.55
49835;BME280;35729;52.090;13.162;2023-04-27T12:06:32;101470.59;;;10.72;43.32
49835;BME280;35729;52.090;13.162;2023-04-27T12:09:02;101476.66;;;10.77;42.92
49835;BME280;35729;52.090;13.162;2023-04-27T12:11:31;101480.16;;;10.76;42.67
49835;BME280;35729;52.090;13.162;2023-04-27T12:14:01;101479.22;;;10.80;43.40
49835;BME280;35729;52.090;13.162;2023-04-27T12:16:29;101478.41;;;10.75;43.24
49835;BME280;35729;52.090;13.162;2023-04-27T12:18:58;101486.28;;;10.76;43.80
49835;BME280;35729;52.090;13.162;2023-04-27T12:21:29;101487.09;;;10.80;43.78
49835;BME280;35729;52.090;13.162;2023-04-27T12:23:59;101477.47;;;10.82;43.70
49835;BME280;35729;52.090;13.162;2023-04-27T12:26:27;101476.47;;;10.92;43.91
49835;BME280;35729;52.090;13.162;2023-04-27T12:28:56;101475.38;;;11.11;43.80
49835;BME280;35729;52.090;13.162;2023-04-27T12:31:24;101477.88;;;11.23;43.39
49835;BME280;35729;52.090;13.162;2023-04-27T12:33:53;101473.38;;;11.33;42.43
49835;BME280;35729;52.090;13.162;2023-04-27T12:36:21;101460.00;;;11.51;41.99
49835;BME280;35729;52.090;13.162;2023-04-27T12:38:57;101451.81;;;11.71;40.33
49835;BME280;35729;52.090;13.162;2023-04-27T12:41:26;101462.06;;;11.88;40.27
49835;BME280;35729;52.090;13.162;2023-04-27T12:43:54;101454.16;;;11.88;39.28
49835;BME280;35729;52.090;13.162;2023-04-27T12:46:23;101452.50;;;11.81;39.02
49835;BME280;35729;52.090;13.162;2023-04-27T12:48:51;101457.81;;;11.80;39.85
49835;BME280;35729;52.090;13.162;2023-04-27T12:51:21;101461.22;;;11.85;39.95
49835;BME280;35729;52.090;13.162;2023-04-27T12:53:50;101459.50;;;11.85;39.76
49835;BME280;35729;52.090;13.162;2023-04-27T12:56:21;101462.94;;;11.87;39.09
49835;BME280;35729;52.090;13.162;2023-04-27T12:58:49;101457.66;;;11.89;40.07
49835;BME280;35729;52.090;13.162;2023-04-27T13:01:18;101465.56;;;11.87;40.02